Time;durP1;ratioP1;P1;durP2;ratioP2;P2;SDS_P1;SDS_P2;PMS_P1;PMS_P2;Temp;Humidity;BMP_temperature;BMP_pressure;BME280_temperature;BME280_humidity;BME280_pressure;Samples;Min_cycle;Max_cycle;Signal;HPM_P1;HPM_P2
2022/03/06 00:00:17;;;;;;;162.70;67.15;;;;;;;;;;5061362;28;20196;-95
2022/03/06 00:02:44;;;;;;;158.25;64.13;;;;;;;;;;5062080;28;20207;-93
2022/03/06 00:05:14;;;;;;;158.32;66.65;;;;;;;;;;5061885;28;20208;-96
2022/03/06 00:07:41;;;;;;;153.80;62.78;;;;;;;;;;5042264;28;20211;-95
2022/03/06 00:10:08;;;;;;;163.45;66.40;;;;;;;;;;5064033;28;20222;-95
2022/03/06 00:12:34;;;;;;;160.63;66.75;;;;;;;;;;5062805;28;20614;-93
2022/03/06 00:15:01;;;;;;;160.13;66.00;;;;;;;;;;5061217;28;20231;-94
2022/03/06 00:17:28;;;;;;;159.77;65.93;;;;;;;;;;5061431;28;20188;-93
2022/03/06 00:19:54;;;;;;;159.00;63.58;;;;;;;;;;5062064;28;20729;-93
2022/03/06 00:22:22;;;;;;;160.30;66.00;;;;;;;;;;5060539;28;20200;-93
2022/03/06 00:24:49;;;;;;;164.77;66.97;;;;;;;;;;5061412;28;20200;-94
2022/03/06 00:29:56;;;;;;;159.80;63.78;;;;;;;;;;5107410;22;20268;-96
2022/03/06 00:32:22;;;;;;;170.20;69.50;;;;;;;;;;5108911;22;20211;-96
2022/03/06 00:34:49;;;;;;;159.05;65.18;;;;;;;;;;5068523;28;20223;-95
2022/03/06 00:37:15;;;;;;;162.40;65.95;;;;;;;;;;5059426;28;20211;-94
2022/03/06 00:39:44;;;;;;;160.38;66.70;;;;;;;;;;5059833;28;20219;-94
2022/03/06 00:42:11;;;;;;;165.35;67.78;;;;;;;;;;5059882;28;20196;-91
2022/03/06 00:44:37;;;;;;;170.18;69.00;;;;;;;;;;5060514;28;20234;-92
2022/03/06 00:47:04;;;;;;;166.90;68.13;;;;;;;;;;5060709;28;20192;-91
2022/03/06 00:49:31;;;;;;;167.55;67.20;;;;;;;;;;5061490;28;20283;-92
2022/03/06 00:51:58;;;;;;;163.20;66.35;;;;;;;;;;5062143;28;20192;-92
2022/03/06 00:54:24;;;;;;;160.23;63.65;;;;;;;;;;5063725;28;20227;-92
2022/03/06 00:56:52;;;;;;;162.60;66.55;;;;;;;;;;5064052;28;20196;-91
2022/03/06 00:59:19;;;;;;;162.85;67.05;;;;;;;;;;5064150;28;20267;-93
2022/03/06 01:01:45;;;;;;;164.07;65.25;;;;;;;;;;5063721;28;20196;-91
2022/03/06 01:04:12;;;;;;;164.27;67.60;;;;;;;;;;5064543;28;20242;-92
2022/03/06 01:06:38;;;;;;;156.40;63.85;;;;;;;;;;5064489;28;20188;-94
2022/03/06 01:09:05;;;;;;;162.32;64.47;;;;;;;;;;5068550;28;20200;-95
2022/03/06 01:11:32;;;;;;;162.48;64.13;;;;;;;;;;5069978;28;20200;-94
2022/03/06 01:14:09;;;;;;;155.38;61.33;;;;;;;;;;5073256;28;20220;-96
2022/03/06 01:16:36;;;;;;;153.93;62.67;;;;;;;;;;5185118;22;20240;-96
2022/03/06 01:19:03;;;;;;;156.68;57.47;;;;;;;;;;5048825;28;20184;-94
2022/03/06 01:21:29;;;;;;;162.35;66.78;;;;;;;;;;5044406;28;20224;-93
2022/03/06 01:23:56;;;;;;;160.95;67.00;;;;;;;;;;5044618;28;20266;-90
2022/03/06 01:26:22;;;;;;;169.82;68.68;;;;;;;;;;5043871;28;20192;-91
2022/03/06 01:28:49;;;;;;;158.85;63.45;;;;;;;;;;5042526;28;20205;-92
2022/03/06 01:31:17;;;;;;;162.52;64.07;;;;;;;;;;5039111;28;20197;-90
2022/03/06 01:33:43;;;;;;;160.43;63.17;;;;;;;;;;5025126;28;20236;-92
2022/03/06 01:36:10;;;;;;;167.13;67.72;;;;;;;;;;5025072;28;20224;-92
2022/03/06 01:38:36;;;;;;;166.20;67.53;;;;;;;;;;5024497;28;20201;-93
2022/03/06 01:41:03;;;;;;;158.68;62.88;;;;;;;;;;5037756;28;20204;-94
2022/03/06 01:43:29;;;;;;;165.10;67.60;;;;;;;;;;5044549;28;20205;-94
2022/03/06 01:45:56;;;;;;;164.55;65.95;;;;;;;;;;5041629;28;20200;-94
2022/03/06 01:48:24;;;;;;;164.27;64.22;;;;;;;;;;5024886;28;20228;-94
2022/03/06 01:50:50;;;;;;;165.57;66.70;;;;;;;;;;5024295;28;20202;-93
2022/03/06 01:53:17;;;;;;;162.27;64.97;;;;;;;;;;5023485;28;20225;-94
2022/03/06 01:55:44;;;;;;;159.63;63.53;;;;;;;;;;5034558;28;20262;-94
2022/03/06 01:58:11;;;;;;;165.25;65.15;;;;;;;;;;5032952;28;20201;-94
2022/03/06 02:00:39;;;;;;;157.80;63.03;;;;;;;;;;5025596;28;20205;-93
2022/03/06 02:03:05;;;;;;;162.75;66.53;;;;;;;;;;5041826;28;20205;-93
2022/03/06 02:05:33;;;;;;;158.45;66.13;;;;;;;;;;5043874;28;20201;-93
2022/03/06 02:08:00;;;;;;;162.35;64.03;;;;;;;;;;5026265;28;20194;-96
2022/03/06 02:10:26;;;;;;;161.48;63.83;;;;;;;;;;5033039;28;20201;-94
2022/03/06 02:12:53;;;;;;;157.98;62.47;;;;;;;;;;5043384;28;20255;-94
2022/03/06 02:15:19;;;;;;;156.32;63.70;;;;;;;;;;5043536;28;20204;-93
2022/03/06 02:17:46;;;;;;;157.65;63.97;;;;;;;;;;5042603;28;20221;-96
2022/03/06 02:20:15;;;;;;;147.23;58.40;;;;;;;;;;5044560;28;20201;-96
2022/03/06 02:23:04;;;;;;;163.77;60.70;;;;;;;;;;5081240;23;20235;-95
2022/03/06 02:25:31;;;;;;;158.00;62.70;;;;;;;;;;5082677;28;20249;-94
2022/03/06 02:27:59;;;;;;;166.55;63.83;;;;;;;;;;5083907;28;20192;-93
2022/03/06 02:30:26;;;;;;;165.45;63.60;;;;;;;;;;5083749;28;20204;-95
2022/03/06 02:32:53;;;;;;;165.80;63.15;;;;;;;;;;5108188;22;20246;-95
2022/03/06 02:35:20;;;;;;;164.35;62.53;;;;;;;;;;5043218;28;20290;-93
2022/03/06 02:37:48;;;;;;;169.52;64.53;;;;;;;;;;5043070;28;20197;-91
2022/03/06 02:40:15;;;;;;;173.30;67.30;;;;;;;;;;5042963;28;20270;-93
2022/03/06 02:42:43;;;;;;;171.68;67.50;;;;;;;;;;5042799;28;20223;-94
2022/03/06 02:45:10;;;;;;;171.10;64.97;;;;;;;;;;5042490;28;20239;-93
2022/03/06 02:47:37;;;;;;;170.20;68.65;;;;;;;;;;5041810;28;20266;-93
2022/03/06 02:50:05;;;;;;;180.05;67.80;;;;;;;;;;5042278;28;20200;-93
2022/03/06 02:52:31;;;;;;;170.35;64.78;;;;;;;;;;5042309;28;20207;-92
2022/03/06 02:54:59;;;;;;;166.65;64.05;;;;;;;;;;5042918;28;20255;-93
2022/03/06 02:57:25;;;;;;;168.73;62.92;;;;;;;;;;5054364;28;20200;-94
2022/03/06 02:59:52;;;;;;;165.85;61.35;;;;;;;;;;5063363;28;20203;-94
2022/03/06 03:02:18;;;;;;;172.70;66.60;;;;;;;;;;5062576;28;20188;-94
2022/03/06 03:04:45;;;;;;;172.85;66.15;;;;;;;;;;5062344;28;20618;-93
2022/03/06 03:07:11;;;;;;;174.10;67.30;;;;;;;;;;5062053;28;20618;-94
2022/03/06 03:09:38;;;;;;;168.55;65.97;;;;;;;;;;5046214;28;20231;-93
2022/03/06 03:12:06;;;;;;;167.50;67.38;;;;;;;;;;5049040;28;20196;-94
2022/03/06 03:14:33;;;;;;;171.80;66.53;;;;;;;;;;5062444;28;20228;-94
2022/03/06 03:17:00;;;;;;;173.13;67.80;;;;;;;;;;5062696;28;20207;-93
2022/03/06 03:19:26;;;;;;;174.25;66.57;;;;;;;;;;5063148;28;20204;-93
2022/03/06 03:21:53;;;;;;;169.07;64.90;;;;;;;;;;5062843;28;20200;-93
2022/03/06 03:24:19;;;;;;;169.23;66.95;;;;;;;;;;5063072;28;20203;-94
2022/03/06 03:26:46;;;;;;;170.65;67.18;;;;;;;;;;5042146;28;20677;-94
2022/03/06 03:29:14;;;;;;;178.57;70.45;;;;;;;;;;5042137;28;20597;-94
2022/03/06 03:31:40;;;;;;;166.55;65.40;;;;;;;;;;5042665;28;20200;-94
2022/03/06 03:34:07;;;;;;;170.07;65.40;;;;;;;;;;5042953;28;20707;-95
2022/03/06 03:36:33;;;;;;;171.32;66.57;;;;;;;;;;5042999;28;20251;-93
2022/03/06 03:39:00;;;;;;;167.82;66.15;;;;;;;;;;5042782;28;20205;-92
2022/03/06 03:41:26;;;;;;;174.02;67.07;;;;;;;;;;5040905;28;20193;-92
2022/03/06 03:43:53;;;;;;;172.18;67.43;;;;;;;;;;5041261;28;20193;-94
2022/03/06 03:46:21;;;;;;;169.07;67.15;;;;;;;;;;5041602;28;20201;-95
2022/03/06 03:48:47;;;;;;;169.18;66.03;;;;;;;;;;5042810;28;20203;-94
2022/03/06 03:51:14;;;;;;;167.60;64.95;;;;;;;;;;5042435;28;20722;-94
2022/03/06 03:53:41;;;;;;;167.93;65.13;;;;;;;;;;5042168;28;20217;-93
2022/03/06 03:56:07;;;;;;;169.85;66.50;;;;;;;;;;5042013;28;20270;-94
2022/03/06 03:58:34;;;;;;;174.02;65.70;;;;;;;;;;5041434;28;20197;-94
2022/03/06 04:01:01;;;;;;;175.00;68.50;;;;;;;;;;5042204;28;20200;-94
2022/03/06 04:03:29;;;;;;;172.20;67.60;;;;;;;;;;5040685;28;20204;-94
2022/03/06 04:05:56;;;;;;;173.45;67.13;;;;;;;;;;5041182;28;20259;-94
2022/03/06 04:08:22;;;;;;;170.38;66.32;;;;;;;;;;5042362;28;20223;-95
2022/03/06 04:10:49;;;;;;;166.18;64.47;;;;;;;;;;5042527;28;20235;-94
2022/03/06 04:13:15;;;;;;;167.82;66.28;;;;;;;;;;5040842;28;20219;-93
2022/03/06 04:15:42;;;;;;;167.23;65.18;;;;;;;;;;5041887;28;20197;-92
2022/03/06 04:18:08;;;;;;;167.63;65.32;;;;;;;;;;5041794;28;20220;-92
2022/03/06 04:20:36;;;;;;;172.05;65.75;;;;;;;;;;5041826;28;20201;-93
2022/03/06 04:23:03;;;;;;;170.18;66.60;;;;;;;;;;5042729;28;20220;-92
2022/03/06 04:25:29;;;;;;;168.90;64.55;;;;;;;;;;5041839;28;20695;-92
2022/03/06 04:27:56;;;;;;;171.93;65.97;;;;;;;;;;5043972;28;20614;-92
2022/03/06 04:30:22;;;;;;;166.77;66.65;;;;;;;;;;5044147;28;20201;-92
2022/03/06 04:32:49;;;;;;;167.32;65.88;;;;;;;;;;5046048;28;20223;-92
2022/03/06 04:35:15;;;;;;;168.85;69.22;;;;;;;;;;5032280;28;20237;-92
2022/03/06 04:37:43;;;;;;;166.15;66.10;;;;;;;;;;5028962;28;20201;-92
2022/03/06 04:40:10;;;;;;;162.70;64.50;;;;;;;;;;5041170;28;20197;-96
2022/03/06 04:42:37;;;;;;;169.50;68.80;;;;;;;;;;5045149;28;20193;-93
2022/03/06 04:45:04;;;;;;;172.65;66.90;;;;;;;;;;5044964;28;20219;-90
2022/03/06 04:47:31;;;;;;;182.55;66.45;;;;;;;;;;5045044;28;20201;-91
2022/03/06 04:49:57;;;;;;;163.98;64.47;;;;;;;;;;5044230;28;20201;-92
2022/03/06 04:52:24;;;;;;;171.45;64.70;;;;;;;;;;5044609;28;20204;-96
2022/03/06 04:54:52;;;;;;;165.27;63.95;;;;;;;;;;5043715;28;20228;-96
2022/03/06 04:57:19;;;;;;;159.20;60.17;;;;;;;;;;5045439;28;20204;-91
2022/03/06 04:59:45;;;;;;;156.05;60.25;;;;;;;;;;5045673;28;20204;-94
2022/03/06 05:02:12;;;;;;;146.52;55.33;;;;;;;;;;5045803;28;20201;-93
2022/03/06 05:04:38;;;;;;;152.63;57.80;;;;;;;;;;5045063;28;20259;-94
2022/03/06 05:10:15;;;;;;;150.93;56.38;;;;;;;;;;5048552;28;20241;-96
2022/03/06 05:12:43;;;;;;;147.75;55.85;;;;;;;;;;5030384;28;20217;-94
2022/03/06 05:15:10;;;;;;;152.23;58.25;;;;;;;;;;5046724;28;20224;-96
2022/03/06 05:17:37;;;;;;;146.98;55.25;;;;;;;;;;5051279;28;20176;-96
2022/03/06 05:20:04;;;;;;;144.95;55.05;;;;;;;;;;5046498;28;20197;-93
2022/03/06 05:22:31;;;;;;;153.20;57.47;;;;;;;;;;5044417;28;20196;-93
2022/03/06 05:24:58;;;;;;;151.32;57.55;;;;;;;;;;5044439;28;20192;-96
2022/03/06 05:27:24;;;;;;;148.48;56.03;;;;;;;;;;5045281;28;20204;-92
2022/03/06 05:30:14;;;;;;;145.85;55.38;;;;;;;;;;5045105;28;20264;-95
2022/03/06 05:32:56;;;;;;;140.85;52.50;;;;;;;;;;5057849;28;20192;-96
2022/03/06 05:35:22;;;;;;;143.88;54.63;;;;;;;;;;5052735;28;20208;-95
2022/03/06 05:37:49;;;;;;;149.40;56.28;;;;;;;;;;5045630;28;20196;-93
2022/03/06 05:40:15;;;;;;;149.68;55.85;;;;;;;;;;5043441;28;20201;-93
2022/03/06 05:42:42;;;;;;;147.65;56.63;;;;;;;;;;5043709;28;20193;-93
2022/03/06 05:45:10;;;;;;;145.27;54.78;;;;;;;;;;5043276;28;20201;-93
2022/03/06 05:47:37;;;;;;;149.07;56.30;;;;;;;;;;5044680;28;20216;-93
2022/03/06 05:50:04;;;;;;;151.15;57.60;;;;;;;;;;5044686;28;20240;-92
2022/03/06 05:52:33;;;;;;;145.18;53.92;;;;;;;;;;5049501;28;20195;-96
2022/03/06 05:54:59;;;;;;;149.80;56.85;;;;;;;;;;5030118;28;20220;-93
2022/03/06 05:57:26;;;;;;;150.45;56.95;;;;;;;;;;5044248;28;20201;-92
2022/03/06 05:59:52;;;;;;;148.30;55.72;;;;;;;;;;5044191;28;20231;-94
2022/03/06 06:02:21;;;;;;;149.35;56.47;;;;;;;;;;5044051;28;20196;-93
2022/03/06 06:04:48;;;;;;;149.48;56.60;;;;;;;;;;5045485;28;20197;-96
2022/03/06 06:07:15;;;;;;;147.13;55.85;;;;;;;;;;5045908;28;20234;-93
2022/03/06 06:12:28;;;;;;;156.98;56.42;;;;;;;;;;5050119;28;20205;-96
2022/03/06 06:14:54;;;;;;;157.02;57.42;;;;;;;;;;5048020;28;20320;-94
2022/03/06 06:17:27;;;;;;;153.43;56.17;;;;;;;;;;5069919;28;20196;-96
2022/03/06 06:19:53;;;;;;;154.57;57.47;;;;;;;;;;5069792;28;20227;-96
2022/03/06 06:22:20;;;;;;;154.40;56.85;;;;;;;;;;5065742;28;20206;-94
2022/03/06 06:24:46;;;;;;;156.07;57.55;;;;;;;;;;5059294;28;20278;-92
2022/03/06 06:27:13;;;;;;;162.68;58.83;;;;;;;;;;5043354;28;20208;-90
2022/03/06 06:29:39;;;;;;;166.55;59.28;;;;;;;;;;5042860;28;20197;-91
2022/03/06 06:32:06;;;;;;;169.07;57.45;;;;;;;;;;5042730;28;20196;-94
2022/03/06 06:34:34;;;;;;;174.80;58.35;;;;;;;;;;5044531;28;20267;-95
2022/03/06 06:37:02;;;;;;;174.25;58.38;;;;;;;;;;5042901;28;20200;-96
2022/03/06 06:39:28;;;;;;;183.30;58.45;;;;;;;;;;5044973;28;20292;-94
2022/03/06 06:41:55;;;;;;;197.02;58.60;;;;;;;;;;5042536;28;20212;-96
2022/03/06 06:44:21;;;;;;;212.57;58.30;;;;;;;;;;5049741;28;20196;-94
2022/03/06 06:46:48;;;;;;;271.42;63.38;;;;;;;;;;5048504;28;20184;-94
2022/03/06 06:49:15;;;;;;;170.02;56.45;;;;;;;;;;5044977;28;20193;-95
2022/03/06 06:51:43;;;;;;;171.15;58.08;;;;;;;;;;5044232;28;20204;-95
2022/03/06 06:54:09;;;;;;;178.77;56.50;;;;;;;;;;5055882;28;20200;-96
2022/03/06 06:56:36;;;;;;;187.00;58.50;;;;;;;;;;5045836;28;20208;-95
2022/03/06 06:59:02;;;;;;;352.30;69.93;;;;;;;;;;5041930;28;20196;-94
2022/03/06 07:01:28;;;;;;;425.50;76.72;;;;;;;;;;5041115;28;20201;-93
2022/03/06 07:03:55;;;;;;;361.08;69.43;;;;;;;;;;5043835;28;20196;-95
2022/03/06 07:06:22;;;;;;;341.17;66.93;;;;;;;;;;5044872;28;20205;-96
2022/03/06 07:08:49;;;;;;;143.60;58.77;;;;;;;;;;5041501;28;20211;-95
2022/03/06 07:11:17;;;;;;;137.27;54.30;;;;;;;;;;5044086;28;20513;-94
2022/03/06 07:13:44;;;;;;;142.82;56.03;;;;;;;;;;5045581;28;20253;-96
2022/03/06 07:16:10;;;;;;;231.32;60.45;;;;;;;;;;5059648;28;20228;-95
2022/03/06 07:18:37;;;;;;;266.90;63.25;;;;;;;;;;5050988;28;20192;-96
2022/03/06 07:21:03;;;;;;;158.52;56.38;;;;;;;;;;5068078;28;20195;-94
2022/03/06 07:23:30;;;;;;;269.55;62.00;;;;;;;;;;5059065;28;20256;-96
2022/03/06 07:25:58;;;;;;;290.73;63.65;;;;;;;;;;5045898;28;20197;-96
2022/03/06 07:28:28;;;;;;;324.55;67.47;;;;;;;;;;5048159;28;20208;-95
2022/03/06 07:31:04;;;;;;;294.52;66.88;;;;;;;;;;5054413;22;20237;-94
2022/03/06 07:33:30;;;;;;;271.40;62.60;;;;;;;;;;5044160;28;20204;-93
2022/03/06 07:35:59;;;;;;;233.88;61.80;;;;;;;;;;5034005;28;20652;-94
2022/03/06 07:38:25;;;;;;;273.15;62.00;;;;;;;;;;5024221;28;20201;-93
2022/03/06 07:40:53;;;;;;;236.00;61.85;;;;;;;;;;5033089;28;20607;-96
2022/03/06 07:43:21;;;;;;;109.35;50.58;;;;;;;;;;5046002;28;20205;-96
2022/03/06 07:45:48;;;;;;;111.00;51.47;;;;;;;;;;5046102;28;20204;-94
2022/03/06 07:48:18;;;;;;;112.85;52.08;;;;;;;;;;5042596;28;20220;-96
2022/03/06 07:53:31;;;;;;;113.03;52.85;;;;;;;;;;5046101;28;20254;-95
2022/03/06 07:55:57;;;;;;;111.30;51.83;;;;;;;;;;5043512;28;20229;-96
2022/03/06 07:58:25;;;;;;;114.03;52.65;;;;;;;;;;5041828;28;20220;-95
2022/03/06 08:00:52;;;;;;;113.60;52.70;;;;;;;;;;5041850;28;20197;-95
2022/03/06 08:03:18;;;;;;;114.55;53.25;;;;;;;;;;5044446;28;20674;-93
2022/03/06 08:05:45;;;;;;;111.90;51.60;;;;;;;;;;5045405;28;20723;-92
2022/03/06 08:08:11;;;;;;;111.68;51.72;;;;;;;;;;5046083;28;20197;-93
2022/03/06 08:10:38;;;;;;;111.95;51.95;;;;;;;;;;5044697;28;20200;-94
2022/03/06 08:13:04;;;;;;;108.57;50.75;;;;;;;;;;5047156;28;20656;-95
2022/03/06 08:15:34;;;;;;;109.05;51.00;;;;;;;;;;5034213;28;20224;-95
2022/03/06 08:18:00;;;;;;;110.65;51.95;;;;;;;;;;5042286;28;20270;-96
2022/03/06 08:20:27;;;;;;;113.55;52.55;;;;;;;;;;5050898;28;20597;-93
2022/03/06 08:22:54;;;;;;;109.50;50.28;;;;;;;;;;5047594;28;20205;-95
2022/03/06 08:25:20;;;;;;;109.78;50.47;;;;;;;;;;5045447;28;20925;-94
2022/03/06 08:27:47;;;;;;;112.85;52.53;;;;;;;;;;5050457;28;20200;-94
2022/03/06 08:30:13;;;;;;;115.05;52.83;;;;;;;;;;5043797;28;20233;-94
2022/03/06 08:32:42;;;;;;;115.63;53.33;;;;;;;;;;5046770;28;20607;-94
2022/03/06 08:35:09;;;;;;;114.03;51.90;;;;;;;;;;5044010;28;20912;-90
2022/03/06 08:37:35;;;;;;;109.75;51.15;;;;;;;;;;5032831;28;20202;-93
2022/03/06 08:40:02;;;;;;;113.78;53.58;;;;;;;;;;5037525;28;20200;-96
2022/03/06 08:42:29;;;;;;;114.50;53.25;;;;;;;;;;5043939;28;20351;-92
2022/03/06 08:44:55;;;;;;;113.63;53.97;;;;;;;;;;5039997;28;20208;-93
2022/03/06 08:47:22;;;;;;;114.65;54.65;;;;;;;;;;5044195;28;20263;-94
2022/03/06 08:49:50;;;;;;;117.50;53.30;;;;;;;;;;5053370;28;20200;-94
2022/03/06 08:52:16;;;;;;;111.57;51.78;;;;;;;;;;5064731;28;20250;-94
2022/03/06 08:54:42;;;;;;;113.90;53.50;;;;;;;;;;5054550;28;20189;-96
2022/03/06 08:57:09;;;;;;;117.05;53.50;;;;;;;;;;5042657;28;20205;-94
2022/03/06 08:59:36;;;;;;;117.80;54.80;;;;;;;;;;5050399;28;20192;-91
2022/03/06 09:02:04;;;;;;;115.18;52.67;;;;;;;;;;5067086;28;20259;-95
2022/03/06 09:04:33;;;;;;;116.18;53.10;;;;;;;;;;5053171;28;20193;-96
2022/03/06 09:07:16;;;;;;;115.77;53.53;;;;;;;;;;5047622;28;20209;-95
2022/03/06 09:09:54;;;;;;;117.53;54.40;;;;;;;;;;5059999;28;20960;-95
2022/03/06 09:12:30;;;;;;;113.67;53.67;;;;;;;;;;5075738;28;20180;-96
2022/03/06 09:15:01;;;;;;;118.78;54.90;;;;;;;;;;5053551;28;20529;-96
2022/03/06 09:18:03;;;;;;;115.50;53.42;;;;;;;;;;5245396;22;20231;-96
2022/03/06 09:20:38;;;;;;;123.78;54.33;;;;;;;;;;5110267;22;20226;-96
2022/03/06 09:23:09;;;;;;;114.85;54.40;;;;;;;;;;5093876;28;20207;-94
2022/03/06 09:25:35;;;;;;;111.28;51.53;;;;;;;;;;5091111;28;20191;-94
2022/03/06 09:28:02;;;;;;;117.18;55.00;;;;;;;;;;5089477;28;20269;-96
2022/03/06 09:30:29;;;;;;;116.22;54.70;;;;;;;;;;5086685;28;20183;-95
2022/03/06 09:32:55;;;;;;;119.20;55.83;;;;;;;;;;5086291;28;20217;-96
2022/03/06 09:35:22;;;;;;;110.35;51.30;;;;;;;;;;5087133;28;20222;-94
2022/03/06 09:37:51;;;;;;;115.88;53.88;;;;;;;;;;5086139;28;20204;-96
2022/03/06 09:40:19;;;;;;;117.22;54.35;;;;;;;;;;5080147;28;20735;-93
2022/03/06 09:42:48;;;;;;;114.65;53.30;;;;;;;;;;5085757;28;20199;-94
2022/03/06 09:45:15;;;;;;;113.85;53.60;;;;;;;;;;5087052;28;20204;-93
2022/03/06 09:47:44;;;;;;;120.05;54.17;;;;;;;;;;5090391;28;20199;-96
2022/03/06 09:52:46;;;;;;;114.47;53.30;;;;;;;;;;5244697;22;20249;-96
2022/03/06 09:55:13;;;;;;;116.78;53.03;;;;;;;;;;5091224;28;20245;-96
2022/03/06 09:57:41;;;;;;;111.90;52.40;;;;;;;;;;5089013;28;20203;-96
2022/03/06 10:00:13;;;;;;;113.55;52.75;;;;;;;;;;5095428;28;20183;-96
2022/03/06 10:05:26;;;;;;;111.40;51.33;;;;;;;;;;5171309;22;20224;-96
2022/03/06 10:10:38;;;;;;;109.75;51.00;;;;;;;;;;5203243;22;20247;-96
2022/03/06 10:13:08;;;;;;;109.78;50.97;;;;;;;;;;5035643;28;20224;-96
2022/03/06 10:15:54;;;;;;;109.75;51.80;;;;;;;;;;5169591;22;20226;-96
2022/03/06 10:26:10;;;;;;;110.70;51.67;;;;;;;;;;5419659;22;20221;-96
2022/03/06 10:29:11;;;;;;;137.00;66.75;;;;;;;;;;5066522;23;20212;-96
2022/03/06 10:32:20;;;;;;;;;;;;;;;;;;;;;
2022/03/06 10:34:49;;;;;;;115.85;53.25;;;;;;;;;;5026528;28;20235;-93
2022/03/06 10:37:17;;;;;;;118.60;56.22;;;;;;;;;;5021824;28;20320;-96
2022/03/06 10:42:44;;;;;;;108.88;49.50;;;;;;;;;;5011622;28;20186;-96
2022/03/06 10:45:24;;;;;;;110.95;52.22;;;;;;;;;;5028570;28;20216;-96
2022/03/06 10:47:50;;;;;;;111.15;52.75;;;;;;;;;;5027118;28;20257;-95
2022/03/06 10:50:21;;;;;;;110.72;51.55;;;;;;;;;;5024430;28;20205;-96
2022/03/06 10:52:47;;;;;;;115.80;54.58;;;;;;;;;;5020341;28;20201;-95
2022/03/06 10:55:14;;;;;;;116.55;53.30;;;;;;;;;;5014865;28;20198;-95
2022/03/06 10:57:42;;;;;;;114.32;53.50;;;;;;;;;;5003566;28;20205;-95
2022/03/06 11:00:10;;;;;;;114.28;53.80;;;;;;;;;;5001960;28;20245;-95
2022/03/06 11:02:38;;;;;;;110.95;52.17;;;;;;;;;;5006720;28;20205;-96
2022/03/06 11:05:06;;;;;;;112.35;52.70;;;;;;;;;;5012146;28;20205;-95
2022/03/06 11:07:32;;;;;;;112.97;51.15;;;;;;;;;;5025979;28;20210;-93
2022/03/06 11:10:01;;;;;;;113.55;50.30;;;;;;;;;;5025563;28;20186;-96
2022/03/06 11:12:29;;;;;;;106.82;51.20;;;;;;;;;;4999781;28;20202;-96
2022/03/06 11:14:55;;;;;;;112.63;53.92;;;;;;;;;;5005756;28;20199;-96
2022/03/06 11:17:22;;;;;;;112.50;53.10;;;;;;;;;;5015347;28;20233;-95
2022/03/06 11:19:50;;;;;;;112.57;52.28;;;;;;;;;;5030612;28;20202;-96
2022/03/06 11:22:19;;;;;;;113.15;52.47;;;;;;;;;;5022596;28;20263;-96
2022/03/06 11:24:49;;;;;;;116.63;55.25;;;;;;;;;;5027960;28;20203;-96
2022/03/06 11:30:28;;;;;;;119.03;56.58;;;;;;;;;;5133523;22;20226;-96
2022/03/06 11:33:15;;;;;;;119.03;56.08;;;;;;;;;;5069324;28;20200;-96
2022/03/06 11:35:45;;;;;;;117.90;55.88;;;;;;;;;;5063984;28;20244;-96
2022/03/06 11:52:48;;;;;;;120.82;56.90;;;;;;;;;;5024667;28;20189;-95
2022/03/06 11:58:15;;;;;;;114.45;52.47;;;;;;;;;;4996986;28;20182;-96
2022/03/06 12:04:01;;;;;;;109.13;51.83;;;;;;;;;;5094829;28;20593;-96
2022/03/06 12:07:00;;;;;;;114.95;55.63;;;;;;;;;;5156656;22;20214;-96
2022/03/06 12:20:40;;;;;;;118.57;54.78;;;;;;;;;;4989658;28;20464;-96
2022/03/06 12:26:17;;;;;;;111.35;52.10;;;;;;;;;;5200091;23;20217;-96
2022/03/06 12:28:54;;;;;;;114.30;53.65;;;;;;;;;;5062789;23;20220;-96
2022/03/06 12:31:48;;;;;;;121.38;54.72;;;;;;;;;;5053278;28;20184;-96
2022/03/06 12:34:40;;;;;;;114.60;54.00;;;;;;;;;;5050092;28;20280;-96
2022/03/06 12:37:07;;;;;;;106.97;49.92;;;;;;;;;;5042821;28;20323;-94
2022/03/06 12:39:37;;;;;;;115.03;54.95;;;;;;;;;;5042767;28;20255;-95
2022/03/06 12:42:10;;;;;;;113.88;52.55;;;;;;;;;;5051455;28;20189;-96
2022/03/06 12:45:18;;;;;;;118.95;54.33;;;;;;;;;;5049504;28;20181;-96
2022/03/06 12:47:51;;;;;;;112.60;51.22;;;;;;;;;;5048691;28;20215;-95
2022/03/06 12:50:37;;;;;;;118.80;54.53;;;;;;;;;;5056468;28;20232;-96
2022/03/06 12:53:06;;;;;;;115.43;54.25;;;;;;;;;;5053538;28;20218;-96
2022/03/06 12:55:36;;;;;;;112.40;53.00;;;;;;;;;;5113181;23;20231;-96
2022/03/06 12:58:03;;;;;;;114.45;54.50;;;;;;;;;;5070655;28;20191;-96
2022/03/06 13:00:32;;;;;;;119.43;55.55;;;;;;;;;;5145520;22;20644;-94
2022/03/06 13:03:01;;;;;;;111.55;52.88;;;;;;;;;;5049974;28;20335;-96
2022/03/06 13:05:30;;;;;;;115.50;54.55;;;;;;;;;;5047998;28;20191;-96
2022/03/06 13:07:58;;;;;;;119.18;55.72;;;;;;;;;;5046483;28;20239;-96
2022/03/06 13:10:25;;;;;;;120.55;55.92;;;;;;;;;;5036121;28;20207;-96
2022/03/06 13:32:51;;;;;;;120.20;56.28;;;;;;;;;;5158600;22;20782;-96
2022/03/06 13:41:24;;;;;;;118.85;56.05;;;;;;;;;;5100819;22;20312;-96
2022/03/06 13:47:15;;;;;;;119.70;56.65;;;;;;;;;;4999692;28;20242;-96
2022/03/06 14:02:04;;;;;;;118.10;54.85;;;;;;;;;;5070334;28;20251;-95
2022/03/06 14:20:44;;;;;;;119.40;56.70;;;;;;;;;;3777937;22;20244;-95
2022/03/06 14:23:10;;;;;;;118.15;56.80;;;;;;;;;;5042736;28;20624;-92
2022/03/06 14:25:37;;;;;;;119.68;56.58;;;;;;;;;;5042932;28;20196;-95
2022/03/06 14:28:04;;;;;;;121.63;56.88;;;;;;;;;;5040988;28;20227;-95
2022/03/06 14:30:30;;;;;;;130.98;61.40;;;;;;;;;;5041867;28;20212;-96
2022/03/06 14:32:57;;;;;;;119.25;56.47;;;;;;;;;;5031986;28;20201;-96
2022/03/06 14:35:34;;;;;;;117.93;56.67;;;;;;;;;;5028970;28;20201;-96
2022/03/06 14:38:05;;;;;;;119.63;54.95;;;;;;;;;;5031941;28;20220;-96
2022/03/06 14:40:32;;;;;;;123.10;58.95;;;;;;;;;;5022959;28;20244;-96
2022/03/06 14:42:59;;;;;;;120.13;56.42;;;;;;;;;;5039718;28;20200;-95
2022/03/06 14:51:00;;;;;;;121.95;57.15;;;;;;;;;;5212673;23;20232;-96
2022/03/06 14:53:28;;;;;;;126.38;57.80;;;;;;;;;;5027517;28;20197;-96
2022/03/06 14:56:00;;;;;;;120.00;56.45;;;;;;;;;;5044392;28;20200;-96
2022/03/06 14:58:41;;;;;;;120.53;57.10;;;;;;;;;;5025589;28;20208;-96
2022/03/06 15:01:08;;;;;;;123.95;57.53;;;;;;;;;;5011220;28;20228;-96
2022/03/06 15:03:35;;;;;;;127.68;59.30;;;;;;;;;;5044985;28;20203;-96
2022/03/06 15:06:04;;;;;;;122.07;57.83;;;;;;;;;;5070113;23;20224;-96
2022/03/06 15:08:32;;;;;;;124.25;58.58;;;;;;;;;;5026745;28;20264;-94
2022/03/06 15:10:59;;;;;;;121.28;56.00;;;;;;;;;;5041540;28;20213;-95
2022/03/06 15:13:26;;;;;;;129.10;60.50;;;;;;;;;;5056233;28;20204;-94
2022/03/06 15:15:53;;;;;;;127.55;57.92;;;;;;;;;;5062450;28;20226;-94
2022/03/06 15:18:19;;;;;;;125.18;58.40;;;;;;;;;;5061623;28;20220;-95
2022/03/06 15:20:46;;;;;;;124.97;59.95;;;;;;;;;;5061166;28;20258;-95
2022/03/06 15:23:12;;;;;;;128.68;61.20;;;;;;;;;;5060779;28;20200;-93
2022/03/06 15:25:40;;;;;;;130.30;62.40;;;;;;;;;;5041862;28;20828;-96
2022/03/06 15:30:47;;;;;;;125.43;59.72;;;;;;;;;;5070681;28;20235;-96
2022/03/06 15:33:23;;;;;;;128.60;58.47;;;;;;;;;;5074281;28;20222;-96
2022/03/06 15:35:55;;;;;;;126.70;60.30;;;;;;;;;;5059505;28;20226;-96
2022/03/06 15:38:21;;;;;;;137.38;66.18;;;;;;;;;;5068020;28;20223;-96
2022/03/06 15:40:53;;;;;;;139.48;64.90;;;;;;;;;;5074943;28;20211;-96
2022/03/06 15:56:09;;;;;;;121.60;56.63;;;;;;;;;;5073826;22;20237;-96
2022/03/06 16:01:52;;;;;;;116.03;55.72;;;;;;;;;;5231522;22;20262;-96
2022/03/06 16:04:32;;;;;;;119.50;56.38;;;;;;;;;;5053392;28;20244;-96
2022/03/06 16:12:11;;;;;;;123.80;58.05;;;;;;;;;;5036231;28;20197;-96
2022/03/06 16:14:47;;;;;;;122.63;57.42;;;;;;;;;;5030702;28;20192;-96
2022/03/06 16:17:14;;;;;;;117.95;56.47;;;;;;;;;;5035931;28;20243;-96
2022/03/06 16:19:40;;;;;;;121.07;57.25;;;;;;;;;;5047959;28;20579;-96
2022/03/06 16:22:07;;;;;;;122.85;57.50;;;;;;;;;;5052777;28;20200;-96
2022/03/06 16:27:20;;;;;;;126.90;57.92;;;;;;;;;;5053916;28;20216;-96
2022/03/06 16:29:57;;;;;;;123.82;57.90;;;;;;;;;;5056832;28;20184;-96
2022/03/06 16:32:24;;;;;;;125.63;58.40;;;;;;;;;;5054813;28;20734;-96
2022/03/06 16:34:53;;;;;;;124.25;59.08;;;;;;;;;;5050396;28;20200;-96
2022/03/06 16:37:27;;;;;;;126.68;59.05;;;;;;;;;;5042128;28;20222;-96
2022/03/06 16:39:54;;;;;;;138.65;64.13;;;;;;;;;;5041037;28;20201;-96
2022/03/06 16:42:22;;;;;;;131.20;59.92;;;;;;;;;;5040605;28;20228;-96
2022/03/06 16:44:48;;;;;;;139.43;64.72;;;;;;;;;;5035580;28;20231;-95
2022/03/06 16:47:15;;;;;;;144.98;67.72;;;;;;;;;;5038811;28;20669;-96
2022/03/06 16:49:42;;;;;;;150.73;72.00;;;;;;;;;;5030493;28;20208;-96
2022/03/06 16:52:08;;;;;;;147.90;68.72;;;;;;;;;;5037562;28;20230;-96